Bei Facebook empfehlenBei Twitter postenGoogle plusPinterest

Das Wetter im Erzgebirge am 11.05.2015

Wetter und Klima am 11.05.2015 Holzhau im Erzgebirge (630m ü.NN)
Letzte gemessene Temperatur und Uhrzeit der Messung23:45:00 Uhr9.40 °C
Temperatur (Maximum / Höchstwert) und Uhrzeit der Messung15:15:00 Uhr19.30 °C
Temperatur (Minimum / Tiefstwert) und Uhrzeit der Messung05:30:000.60 °C
Errechneter Absolutwert der Temperaturschwankungen zwischen Tmin und Tmax des Tages18.70 K
Errechnete Tagesmitteltemperatur10.79792 °C
Gesamt - Niederschlag des Tages (in flüssiger Form)0.00 Liter / m²
Luftdruck (Maximum / Höchstwert) und Zeitpunkt der Messung01:00:00 Uhr1025.90 hPa
Luftdruck (Minimum / Tiefstwert) und Zeitpunkt der Messung22:45:00 Uhr1021.80 hPa
Errechneter Absolutwert der Luftdruckschwankungen des Tages4.10 hPa
Höchste gemessene Windgeschwindigkeit und Uhrzeit der Messung13:30:00 Uhr8.28 km/h
Errechnete Windhäufigkeit in Relation zu den Messwerten des Tages10.41667 %
Niedrigste Windkühle (Windchill) und Zeitpunkt der Messung05:15:00 Uhr-2.00 °C
Taupunkt (Maximum / Höchstwert) und Uhrzeit der Messung18:00:00 Uhr7.70 °C
Taupunkt (Minimum / Tiefstwert) und Uhrzeit der Messung01:45:00-1.00 °C
Anzahl der automatisch eingelesenen Messwerte 96

Detaillierte Wetter- und Klima- Messwerte für den 11.05.2015 in Holzhau im Erzgebirge (630m ü.NN)
ZeitTemperaturLuftdruckRel. LuftfeuchteWindWindrichtungWindchillTaupunktNiederschlag l/m²
23:45:009.40 °C1021.90 hPa64.00 %2.90 °C 
23:30:009.90 °C1022.10 hPa64.00 %3.40 °C 
23:15:0010.40 °C1021.90 hPa63.00 %3.70 °C 
23:00:0010.50 °C1022.00 hPa63.00 %3.80 °C 
22:45:0010.40 °C1021.80 hPa63.00 %3.70 °C 
22:30:0010.70 °C1021.90 hPa63.00 %4.00 °C 
22:15:0010.90 °C1022.10 hPa63.00 %4.10 °C 
22:00:0010.90 °C1021.90 hPa62.00 %3.90 °C 
21:45:0011.20 °C1022.00 hPa62.00 %4.20 °C 
21:30:0011.30 °C1022.00 hPa62.00 %4.30 °C 
21:15:0011.60 °C1022.20 hPa62.00 %4.60 °C 
21:00:0011.90 °C1021.90 hPa61.00 %4.60 °C 
20:45:0012.40 °C1021.80 hPa60.00 %4.90 °C 
20:30:0012.90 °C1021.80 hPa60.00 %5.30 °C 
20:15:0013.80 °C1021.90 hPa58.00 %5.70 °C 
20:00:0014.50 °C1021.90 hPa57.00 %6.10 °C 
19:45:0015.30 °C1021.90 hPa54.00 %6.10 °C 
19:30:0015.90 °C1021.80 hPa54.00 %3.96 km/hOSO15.90 °C6.60 °C 
19:15:0016.20 °C1021.80 hPa53.00 %6.60 °C 
19:00:0016.80 °C1022.00 hPa51.00 %6.60 °C 
18:45:0017.20 °C1022.10 hPa50.00 %6.70 °C 
18:30:0017.60 °C1022.30 hPa49.00 %6.80 °C 
18:15:0017.90 °C1022.50 hPa49.00 %7.00 °C 
18:00:0018.60 °C1022.40 hPa49.00 %7.70 °C 
17:45:0018.90 °C1022.50 hPa48.00 %7.70 °C 
17:30:0018.90 °C1022.60 hPa48.00 %5.76 km/hSO19.70 °C7.70 °C 
17:15:0018.80 °C1022.70 hPa47.00 %7.30 °C 
17:00:0018.90 °C1022.70 hPa48.00 %7.70 °C 
16:45:0019.20 °C1023.20 hPa47.00 %7.60 °C 
16:30:0019.10 °C1023.40 hPa47.00 %7.50 °C 
16:15:0018.90 °C1023.50 hPa46.00 %7.00 °C 
16:00:0018.80 °C1023.30 hPa46.00 %4.68 km/hSSW18.80 °C6.90 °C 
15:45:0018.50 °C1023.70 hPa45.00 %6.40 °C 
15:30:0018.80 °C1023.70 hPa46.00 %5.04 km/hSO19.70 °C6.90 °C 
15:15:0019.30 °C1024.00 hPa45.00 %6.48 km/hSW20.10 °C7.10 °C 
15:00:0019.20 °C1023.90 hPa45.00 %7.00 °C 
14:45:0019.30 °C1024.00 hPa45.00 %7.10 °C 
14:30:0018.90 °C1024.00 hPa46.00 %7.00 °C 
14:15:0018.50 °C1024.20 hPa46.00 %6.70 °C 
14:00:0018.40 °C1024.20 hPa45.00 %6.30 °C 
13:45:0018.40 °C1024.30 hPa44.00 %5.90 °C 
13:30:0018.40 °C1024.40 hPa42.00 %8.28 km/hSSW18.80 °C5.30 °C 
13:15:0018.60 °C1024.60 hPa41.00 %5.10 °C 
13:00:0018.40 °C1024.70 hPa42.00 %5.30 °C 
12:45:0018.00 °C1024.80 hPa42.00 %4.90 °C 
12:30:0017.90 °C1024.80 hPa41.00 %4.50 °C 
12:15:0017.90 °C1025.10 hPa45.00 %5.80 °C 
12:00:0017.30 °C1025.00 hPa45.00 %5.30 °C 
11:45:0016.80 °C1025.30 hPa46.00 %5.10 °C 
11:30:0016.70 °C1025.10 hPa46.00 %5.00 °C 
11:15:0016.50 °C1025.20 hPa49.00 %5.80 °C 
11:00:0015.90 °C1025.50 hPa52.00 %6.10 °C 
10:45:0015.60 °C1025.60 hPa55.00 %6.60 °C 
10:30:0014.90 °C1025.50 hPa58.00 %6.70 °C 
10:15:0014.40 °C1025.60 hPa59.00 %6.50 °C 
10:00:0013.40 °C1025.60 hPa62.00 %6.30 °C 
09:45:0012.90 °C1025.60 hPa63.00 %6.00 °C 
09:30:0012.40 °C1025.70 hPa65.00 %3.96 km/hSSW12.40 °C6.00 °C 
09:15:0011.80 °C1025.50 hPa66.00 %5.70 °C 
09:00:0011.40 °C1025.60 hPa68.00 %5.70 °C 
08:45:0010.90 °C1025.60 hPa70.00 %5.70 °C 
08:30:0010.60 °C1025.70 hPa72.00 %5.80 °C 
08:15:0010.10 °C1025.60 hPa76.00 %6.10 °C 
08:00:009.60 °C1025.60 hPa80.00 %6.30 °C 
07:45:008.50 °C1025.40 hPa84.00 %6.00 °C 
07:30:007.20 °C1025.40 hPa88.00 %5.30 °C 
07:15:005.30 °C1025.50 hPa91.00 %4.00 °C 
07:00:003.80 °C1025.50 hPa91.00 %2.50 °C 
06:45:002.70 °C1025.40 hPa91.00 %1.40 °C 
06:30:001.90 °C1025.40 hPa91.00 %0.60 °C 
06:15:001.60 °C1025.40 hPa91.00 %0.30 °C 
06:00:001.20 °C1025.60 hPa91.00 %-0.10 °C 
05:45:000.90 °C1025.40 hPa91.00 %-0.40 °C 
05:30:000.60 °C1025.40 hPa91.00 %-0.70 °C 
05:15:000.60 °C1025.60 hPa91.00 %7.92 km/hO-2.00 °C-0.70 °C 
05:00:000.70 °C1025.60 hPa91.00 %-0.60 °C 
04:45:000.70 °C1025.50 hPa90.00 %-0.70 °C 
04:30:000.60 °C1025.60 hPa91.00 %-0.70 °C 
04:15:000.80 °C1025.80 hPa90.00 %-0.60 °C 
04:00:000.70 °C1025.70 hPa90.00 %-0.70 °C 
03:45:000.90 °C1025.80 hPa90.00 %-0.50 °C 
03:30:000.90 °C1025.80 hPa90.00 %-0.50 °C 
03:15:000.90 °C1025.80 hPa90.00 %5.40 km/hONO-0.70 °C-0.50 °C 
03:00:000.80 °C1025.70 hPa90.00 %4.68 km/hSO0.80 °C-0.60 °C 
02:45:000.90 °C1025.60 hPa89.00 %-0.70 °C 
02:30:000.80 °C1025.60 hPa89.00 %-0.80 °C 
02:15:000.90 °C1025.70 hPa89.00 %-0.70 °C 
02:00:000.80 °C1025.80 hPa89.00 %-0.80 °C 
01:45:000.80 °C1025.70 hPa88.00 %-1.00 °C 
01:30:000.90 °C1025.80 hPa88.00 %-0.90 °C 
01:15:001.30 °C1025.70 hPa88.00 %-0.50 °C 
01:00:001.50 °C1025.90 hPa88.00 %-0.30 °C 
00:45:001.60 °C1025.90 hPa88.00 %-0.20 °C 
00:30:001.90 °C1025.90 hPa87.00 %0.00 °C 
00:15:002.10 °C1025.80 hPa87.00 %0.20 °C 
00:00:002.40 °C1025.80 hPa86.00 %0.30 °C 

Permanenter Link zu dieser Seite: Wetter im Erzgebirge am 11.05.2015
Performance-Info: Die Erstellung der Seite / Statistik(en) / Tabelle(n) erforderte 5 Datenbankserver-Abfrage(n) und dauerte 122 Millisekunden. (Dieser Messwert ist von der Gesamt-Auslastung des Servers abhängig.)
Erzgebirge - Wetter | Erzgebirge - Wetter (Mobilgeräte) | Komplette Klimadatenbank